createdAt,value
2022-09-25T00:01:19.706Z,101116.19
2022-09-25T00:03:47.692Z,101113.66
2022-09-25T00:06:17.537Z,101109.13
2022-09-25T00:08:46.621Z,101111.91
2022-09-25T00:11:17.544Z,101102.63
2022-09-25T00:13:46.719Z,101123.63
2022-09-25T00:16:17.205Z,101119.25
2022-09-25T00:19:03.806Z,101118.25
2022-09-25T00:21:33.018Z,101110.31
2022-09-25T00:24:03.260Z,101117.50
2022-09-25T00:26:33.136Z,101113.88
2022-09-25T00:29:01.683Z,101114.81
2022-09-25T00:31:31.064Z,101107.88
2022-09-25T00:34:01.957Z,101118.38
2022-09-25T00:36:30.664Z,101116.66
2022-09-25T00:38:58.729Z,101114.81
2022-09-25T00:41:30.161Z,101112.16
2022-09-25T00:43:59.245Z,101106.91
2022-09-25T00:46:30.231Z,101114.81
2022-09-25T00:49:04.268Z,101122.03
2022-09-25T00:51:41.240Z,101116.78
2022-09-25T00:54:14.627Z,101119.47
2022-09-25T00:56:45.732Z,101114.22
2022-09-25T00:59:18.084Z,101122.03
2022-09-25T01:01:46.511Z,101120.31
2022-09-25T01:04:16.555Z,101120.19
2022-09-25T01:06:44.606Z,101115.19
2022-09-25T01:09:12.960Z,101115.81
2022-09-25T01:11:40.835Z,101124.72
2022-09-25T01:14:10.722Z,101120.19
2022-09-25T01:16:46.355Z,101115.69
2022-09-25T01:19:38.188Z,101121.06
2022-09-25T01:22:16.842Z,101121.94
2022-09-25T01:24:56.355Z,101120.09
2022-09-25T01:27:37.781Z,101112.06
2022-09-25T01:30:13.732Z,101118.88
2022-09-25T01:32:51.795Z,101118.88
2022-09-25T01:35:26.865Z,101115.34
2022-09-25T01:37:59.996Z,101115.34
2022-09-25T01:40:33.514Z,101115.34
2022-09-25T01:43:11.443Z,101109.97
2022-09-25T01:45:48.028Z,101113.66
2022-09-25T01:48:18.899Z,101111.91
2022-09-25T01:50:51.406Z,101115.56
2022-09-25T01:53:24.645Z,101119.25
2022-09-25T01:55:57.521Z,101113.13
2022-09-25T01:58:30.528Z,101061.69
2022-09-25T02:01:06.587Z,101071.06
2022-09-25T02:03:41.099Z,101058.81
2022-09-25T02:06:11.404Z,101101.88
2022-09-25T02:08:45.450Z,100978.53
2022-09-25T02:11:14.322Z,101095.75
2022-09-25T02:13:48.104Z,101090.50
2022-09-25T02:16:20.824Z,101095.03
2022-09-25T02:19:08.038Z,101091.59
2022-09-25T02:21:45.638Z,101075.22
2022-09-25T02:24:20.847Z,101084.41
2022-09-25T02:26:49.750Z,101029.91
2022-09-25T02:29:18.336Z,101084.41
2022-09-25T02:31:50.683Z,100983.44
2022-09-25T02:34:18.820Z,101080.00
2022-09-25T02:36:47.236Z,101049.00
2022-09-25T02:39:21.362Z,101073.69
2022-09-25T02:42:05.746Z,101071.94
2022-09-25T02:44:42.213Z,101073.78
2022-09-25T02:47:23.282Z,101003.75
2022-09-25T02:49:59.348Z,101053.88
2022-09-25T02:52:34.442Z,101067.53
2022-09-25T02:55:08.636Z,101031.31
2022-09-25T02:57:44.589Z,101063.03
2022-09-25T03:00:14.391Z,100955.47
2022-09-25T03:02:49.762Z,101062.19
2022-09-25T03:05:21.457Z,101011.66
2022-09-25T03:08:07.198Z,101064.75
2022-09-25T03:10:37.919Z,101059.50
2022-09-25T03:13:16.174Z,101060.13
2022-09-25T03:15:47.715Z,101025.84
2022-09-25T03:18:17.150Z,101059.28
2022-09-25T03:20:45.257Z,101044.22
2022-09-25T03:23:14.057Z,101014.09
2022-09-25T03:25:45.958Z,101069.19
2022-09-25T03:28:18.787Z,101064.75
2022-09-25T03:30:58.325Z,101040.47
2022-09-25T03:33:28.953Z,101055.00
2022-09-25T03:36:08.550Z,100982.31
2022-09-25T03:38:36.781Z,101046.44
2022-09-25T03:41:05.686Z,101008.00
2022-09-25T03:43:36.721Z,101045.69
2022-09-25T03:46:05.339Z,101043.97
2022-09-25T03:48:34.884Z,101044.84
2022-09-25T03:51:02.953Z,100998.81
2022-09-25T03:53:33.604Z,101049.47
2022-09-25T03:56:02.304Z,101045.91
2022-09-25T03:58:30.658Z,101047.75
2022-09-25T04:00:58.646Z,101036.28
2022-09-25T04:03:28.032Z,101037.00
2022-09-25T04:05:58.132Z,100901.88
2022-09-25T04:08:26.804Z,100893.09
2022-09-25T04:10:56.348Z,101024.59
2022-09-25T04:13:24.927Z,100967.53
2022-09-25T04:15:52.986Z,100976.72
2022-09-25T04:18:20.938Z,101027.34
2022-09-25T04:20:48.858Z,101012.91
2022-09-25T04:23:18.212Z,100974.47
2022-09-25T04:25:46.566Z,101030.91
2022-09-25T04:28:14.485Z,101030.03
2022-09-25T04:30:42.398Z,100994.81
2022-09-25T04:33:28.203Z,101030.91
2022-09-25T04:35:56.608Z,101020.38
2022-09-25T04:38:25.997Z,100955.97
2022-09-25T04:40:53.978Z,101017.69
2022-09-25T04:43:22.911Z,101023.06
2022-09-25T04:45:51.763Z,101030.22
2022-09-25T04:48:19.943Z,101025.72
2022-09-25T04:50:51.626Z,101026.63
2022-09-25T04:53:19.658Z,101028.53
2022-09-25T04:55:48.925Z,101031.09
2022-09-25T04:58:16.836Z,100961.34
2022-09-25T05:00:44.843Z,101002.38
2022-09-25T05:03:12.887Z,101014.94
2022-09-25T05:05:40.819Z,101020.16
2022-09-25T05:08:08.789Z,101018.34
2022-09-25T05:10:39.573Z,101023.59
2022-09-25T05:13:10.257Z,101019.09
2022-09-25T05:15:38.222Z,101016.53
2022-09-25T05:18:08.253Z,100921.50
2022-09-25T05:20:37.265Z,100921.72
2022-09-25T05:23:05.203Z,101016.53
2022-09-25T05:25:33.472Z,100959.16
2022-09-25T05:28:02.630Z,100913.81
2022-09-25T05:30:33.386Z,101013.13
2022-09-25T05:33:01.487Z,100978.22
2022-09-25T05:35:30.891Z,101013.22
2022-09-25T05:37:59.270Z,101014.13
2022-09-25T05:40:27.829Z,101021.34
2022-09-25T05:42:56.279Z,101023.19
2022-09-25T05:45:25.000Z,101015.22
2022-09-25T05:48:03.042Z,101011.72
2022-09-25T05:50:32.448Z,101003.47
2022-09-25T05:53:01.776Z,101007.44
2022-09-25T05:55:29.986Z,100996.41
2022-09-25T05:58:02.053Z,101005.47
2022-09-25T06:00:32.771Z,101012.66
2022-09-25T06:03:02.894Z,100977.81
2022-09-25T06:05:31.125Z,101012.66
2022-09-25T06:07:59.053Z,101011.81
2022-09-25T06:10:27.418Z,101013.63
2022-09-25T06:12:58.928Z,100959.38
2022-09-25T06:15:27.987Z,100979.69
2022-09-25T06:17:56.326Z,101000.22
2022-09-25T06:20:26.071Z,100999.38
2022-09-25T06:22:54.681Z,100900.97
2022-09-25T06:25:23.783Z,100982.38
2022-09-25T06:27:54.214Z,101000.22
2022-09-25T06:30:22.495Z,100957.56
2022-09-25T06:32:51.547Z,101005.47
2022-09-25T06:35:19.500Z,100986.28
2022-09-25T06:37:48.759Z,100975.91
2022-09-25T06:40:16.882Z,100963.81
2022-09-25T06:42:46.262Z,100999.13
2022-09-25T06:45:14.518Z,100924.69
2022-09-25T06:47:42.416Z,101002.66
2022-09-25T06:50:12.353Z,100999.03
2022-09-25T06:52:43.598Z,100944.88
2022-09-25T06:55:12.971Z,100936.56
2022-09-25T06:57:40.894Z,100998.03
2022-09-25T07:00:10.231Z,100909.47
2022-09-25T07:02:55.499Z,100999.56
2022-09-25T07:05:23.484Z,100996.88
2022-09-25T07:07:51.354Z,100995.94
2022-09-25T07:10:20.597Z,100947.94
2022-09-25T07:12:48.530Z,100996.53
2022-09-25T07:15:16.697Z,100942.38
2022-09-25T07:17:45.137Z,100984.84
2022-09-25T07:20:15.469Z,100987.53
2022-09-25T07:22:44.120Z,100976.16
2022-09-25T07:25:12.837Z,101003.41
2022-09-25T07:27:42.112Z,100984.47
2022-09-25T07:30:11.303Z,100988.03
2022-09-25T07:32:39.257Z,100975.28
2022-09-25T07:35:07.693Z,100990.47
2022-09-25T07:37:35.603Z,100991.34
2022-09-25T07:40:03.596Z,100993.91
2022-09-25T07:42:31.618Z,100991.22
2022-09-25T07:45:00.872Z,100929.97
2022-09-25T07:47:28.787Z,100929.00
2022-09-25T07:49:56.680Z,100973.88
2022-09-25T07:52:24.645Z,100947.13
2022-09-25T07:54:52.646Z,100965.34
2022-09-25T07:57:21.322Z,100977.19
2022-09-25T07:59:49.475Z,100952.13
2022-09-25T08:02:18.837Z,100978.91
2022-09-25T08:04:46.873Z,100948.41
2022-09-25T08:07:14.816Z,100969.88
2022-09-25T08:09:42.771Z,100961.72
2022-09-25T08:12:12.972Z,100957.53
2022-09-25T08:14:41.846Z,100964.28
2022-09-25T08:17:09.760Z,100913.94
2022-09-25T08:19:39.015Z,100944.25
2022-09-25T08:22:06.995Z,100957.81
2022-09-25T08:24:34.962Z,100963.09
2022-09-25T08:27:02.842Z,100956.72
2022-09-25T08:29:31.149Z,100960.25
2022-09-25T08:31:59.049Z,100952.94
2022-09-25T08:34:42.981Z,100944.28
2022-09-25T08:37:12.887Z,100918.88
2022-09-25T08:39:40.774Z,100865.94
2022-09-25T08:42:19.828Z,100953.56
2022-09-25T08:45:21.935Z,100933.78
2022-09-25T08:48:11.302Z,100947.34
2022-09-25T08:50:39.314Z,100922.28
2022-09-25T08:53:15.458Z,100817.75
2022-09-25T08:56:00.848Z,100947.09
2022-09-25T08:58:31.539Z,100934.78
2022-09-25T09:01:03.420Z,100930.84
2022-09-25T09:03:33.938Z,100927.56
2022-09-25T09:06:05.872Z,100906.72
2022-09-25T09:08:39.348Z,100889.25
2022-09-25T09:11:13.734Z,100924.88
2022-09-25T09:13:47.611Z,100913.78
2022-09-25T09:16:24.387Z,100916.59
2022-09-25T09:18:52.558Z,100913.03
2022-09-25T09:21:26.565Z,100918.16
2022-09-25T09:24:07.632Z,100869.84
2022-09-25T09:26:52.106Z,100896.94
2022-09-25T09:29:53.100Z,100901.34
2022-09-25T09:32:37.697Z,100915.16
2022-09-25T09:35:15.886Z,100894.88
2022-09-25T09:37:54.300Z,100904.13
2022-09-25T09:40:33.656Z,100902.31
2022-09-25T09:43:07.492Z,100894.63
2022-09-25T09:45:44.315Z,100898.53
2022-09-25T09:48:18.645Z,100892.19
2022-09-25T09:50:52.845Z,100886.69
2022-09-25T09:53:30.966Z,100883.88
2022-09-25T09:56:05.699Z,100877.44
2022-09-25T09:58:45.113Z,100870.09
2022-09-25T10:01:36.551Z,100874.50
2022-09-25T10:04:06.225Z,100872.66
2022-09-25T10:06:38.757Z,100877.94
2022-09-25T10:09:08.805Z,100880.47
2022-09-25T10:11:39.044Z,100880.38
2022-09-25T10:14:07.074Z,100839.94
2022-09-25T10:16:35.304Z,100877.53
2022-09-25T10:19:07.546Z,100862.16
2022-09-25T10:21:41.434Z,100859.22
2022-09-25T10:24:09.666Z,100859.22
2022-09-25T10:26:40.707Z,100853.59
2022-09-25T10:29:27.722Z,100854.31
2022-09-25T10:32:00.882Z,100846.97
2022-09-25T10:34:29.738Z,100841.75
2022-09-25T10:36:58.091Z,100840.63
2022-09-25T10:39:44.180Z,100845.75
2022-09-25T10:42:38.614Z,100848.31
2022-09-25T10:45:31.859Z,100839.28
2022-09-25T10:48:17.340Z,100810.25
2022-09-25T10:50:45.838Z,100829.41
2022-09-25T10:53:30.423Z,100828.28
2022-09-25T10:56:05.152Z,100753.16
2022-09-25T10:58:40.522Z,100819.13
2022-09-25T11:01:13.752Z,100819.13
2022-09-25T11:03:50.436Z,100812.47
2022-09-25T11:06:24.870Z,100806.25
2022-09-25T11:09:07.720Z,100796.75
2022-09-25T11:11:36.805Z,100799.75
2022-09-25T11:14:08.661Z,100797.81
2022-09-25T11:16:48.700Z,100795.97
2022-09-25T11:19:22.708Z,100794.13
2022-09-25T11:22:04.840Z,100792.16
2022-09-25T11:24:47.093Z,100781.41
2022-09-25T11:27:21.653Z,100781.41
2022-09-25T11:30:02.550Z,100745.09
2022-09-25T11:32:40.061Z,100774.97
2022-09-25T11:35:22.663Z,100762.59
2022-09-25T11:38:04.005Z,100765.91
2022-09-25T11:40:58.419Z,100765.91
2022-09-25T11:43:38.914Z,100736.91
2022-09-25T11:46:24.271Z,100742.75
2022-09-25T11:49:01.690Z,100764.22
2022-09-25T11:51:50.509Z,100760.50
2022-09-25T11:54:33.755Z,100748.91
2022-09-25T11:57:07.647Z,100740.00
2022-09-25T11:59:52.818Z,100739.88
2022-09-25T12:02:41.770Z,100736.31
2022-09-25T12:05:35.124Z,100728.25
2022-09-25T12:08:20.021Z,100723.88
2022-09-25T12:10:58.335Z,100725.56
2022-09-25T12:13:39.724Z,100719.34
2022-09-25T12:16:18.624Z,100713.84
2022-09-25T12:19:08.706Z,100713.00
2022-09-25T12:21:47.879Z,100708.31
2022-09-25T12:24:30.553Z,100705.78
2022-09-25T12:27:10.384Z,100696.72
2022-09-25T12:30:16.727Z,100696.59
2022-09-25T12:33:09.326Z,100692.34
2022-09-25T12:35:44.763Z,100702.94
2022-09-25T12:38:23.541Z,100693.06
2022-09-25T12:40:56.739Z,100690.38
2022-09-25T12:43:29.068Z,100689.25
2022-09-25T12:46:03.567Z,100666.88
2022-09-25T12:48:37.420Z,100677.63
2022-09-25T12:51:13.343Z,100668.59
2022-09-25T12:53:45.532Z,100668.88
2022-09-25T12:56:17.629Z,100665.19
2022-09-25T12:58:53.158Z,100665.06
2022-09-25T13:01:28.029Z,100654.09
2022-09-25T13:04:06.054Z,100652.47
2022-09-25T13:06:46.853Z,100652.47
2022-09-25T13:09:24.041Z,100649.06
2022-09-25T13:11:57.382Z,100638.31
2022-09-25T13:14:33.075Z,100637.47
2022-09-25T13:17:01.237Z,100633.06
2022-09-25T13:19:32.440Z,100579.72
2022-09-25T13:22:07.262Z,100632.09
2022-09-25T13:24:43.784Z,100627.56
2022-09-25T13:27:18.933Z,100619.50
2022-09-25T13:29:57.794Z,100612.94
2022-09-25T13:32:29.131Z,100621.34
2022-09-25T13:35:01.490Z,100618.75
2022-09-25T13:37:34.357Z,100592.09
2022-09-25T13:40:31.609Z,100590.44
2022-09-25T13:43:18.268Z,100594.97
2022-09-25T13:45:46.504Z,100587.06
2022-09-25T13:48:34.221Z,100577.13
2022-09-25T13:51:35.757Z,100572.59
2022-09-25T13:54:25.221Z,100569.91
2022-09-25T13:56:55.256Z,100564.53
2022-09-25T13:59:25.733Z,100542.41
2022-09-25T14:01:56.834Z,100560.72
2022-09-25T14:04:31.846Z,100551.69
2022-09-25T14:07:18.898Z,100547.28
2022-09-25T14:09:53.637Z,100550.72
2022-09-25T14:12:35.038Z,100543.38
2022-09-25T14:15:07.341Z,100532.44
2022-09-25T14:17:37.469Z,100534.44
2022-09-25T14:20:11.201Z,100510.59
2022-09-25T14:22:44.558Z,100530.78
2022-09-25T14:25:33.068Z,100531.50
2022-09-25T14:28:01.661Z,100519.19
2022-09-25T14:30:31.540Z,100526.13
2022-09-25T14:33:35.538Z,100519.72
2022-09-25T14:36:11.496Z,100520.75
2022-09-25T14:38:57.669Z,100517.91
2022-09-25T14:41:53.050Z,100488.56
2022-09-25T14:44:55.657Z,100509.84
2022-09-25T14:47:23.773Z,100506.28
2022-09-25T14:49:54.235Z,100508.88
2022-09-25T14:52:25.586Z,100504.19
2022-09-25T14:54:57.088Z,100503.22
2022-09-25T14:57:30.066Z,100488.91
2022-09-25T15:00:02.689Z,100492.31
2022-09-25T15:02:35.301Z,100492.31
2022-09-25T15:05:18.949Z,100487.78
2022-09-25T15:07:47.729Z,100495.00
2022-09-25T15:10:28.948Z,100485.81
2022-09-25T15:13:07.254Z,100457.78
2022-09-25T15:15:35.820Z,100483.28
2022-09-25T15:18:04.807Z,100484.97
2022-09-25T15:20:34.596Z,100477.75
2022-09-25T15:23:06.741Z,100480.31
2022-09-25T15:25:39.228Z,100477.63
2022-09-25T15:28:10.082Z,100458.91
2022-09-25T15:30:40.078Z,100473.94
2022-09-25T15:33:20.974Z,100471.25
2022-09-25T15:35:55.753Z,100445.59
2022-09-25T15:38:30.510Z,100463.06
2022-09-25T15:40:59.247Z,100469.41
2022-09-25T15:43:30.041Z,100468.44
2022-09-25T15:45:59.488Z,100462.19
2022-09-25T15:48:32.758Z,100465.59
2022-09-25T15:51:06.782Z,100465.75
2022-09-25T15:53:39.883Z,100456.94
2022-09-25T15:56:17.859Z,100458.50
2022-09-25T15:58:51.192Z,100453.97
2022-09-25T16:01:40.656Z,100432.72
2022-09-25T16:04:28.621Z,100452.16
2022-09-25T16:06:56.565Z,100448.06
2022-09-25T16:09:31.767Z,100451.19
2022-09-25T16:12:20.313Z,100450.16
2022-09-25T16:14:50.522Z,100447.47
2022-09-25T16:17:24.628Z,100452.50
2022-09-25T16:20:04.193Z,100446.09
2022-09-25T16:22:45.820Z,100444.28
2022-09-25T16:25:21.113Z,100438.03
2022-09-25T16:27:49.566Z,100437.19
2022-09-25T16:30:22.329Z,100421.28
2022-09-25T16:32:53.265Z,100429.00
2022-09-25T16:35:26.062Z,100416.75
2022-09-25T16:37:54.789Z,100438.75
2022-09-25T16:40:26.542Z,100398.91
2022-09-25T16:42:56.890Z,100428.72
2022-09-25T16:45:29.719Z,100427.72
2022-09-25T16:47:58.891Z,100419.09
2022-09-25T16:50:29.237Z,100421.34
2022-09-25T16:52:57.112Z,100419.66
2022-09-25T16:55:27.421Z,100416.84
2022-09-25T16:57:56.622Z,100418.53
2022-09-25T17:00:28.776Z,100417.38
2022-09-25T17:02:57.211Z,100418.25
2022-09-25T17:05:27.650Z,100416.41
2022-09-25T17:07:57.855Z,100417.38
2022-09-25T17:10:28.661Z,100412.00
2022-09-25T17:12:59.051Z,100413.84
2022-09-25T17:15:32.771Z,100408.47
2022-09-25T17:18:02.048Z,100390.16
2022-09-25T17:20:32.032Z,100413.84
2022-09-25T17:23:00.433Z,100412.00
2022-09-25T17:25:39.875Z,100411.16
2022-09-25T17:28:09.470Z,100410.31
2022-09-25T17:30:39.478Z,100419.22
2022-09-25T17:33:08.022Z,100415.72
2022-09-25T17:35:41.510Z,100406.63
2022-09-25T17:38:09.978Z,100407.75
2022-09-25T17:40:37.930Z,100412.88
2022-09-25T17:43:06.082Z,100407.47
2022-09-25T17:45:44.761Z,100405.50
2022-09-25T17:48:13.100Z,100393.88
2022-09-25T17:50:41.088Z,100398.44
2022-09-25T17:53:17.238Z,100398.16
2022-09-25T17:55:51.216Z,100390.38
2022-09-25T17:58:22.109Z,100387.09
2022-09-25T18:00:52.448Z,100387.41
2022-09-25T18:03:21.526Z,100387.41
2022-09-25T18:05:49.759Z,100384.72
2022-09-25T18:08:18.096Z,100383.84
2022-09-25T18:10:46.573Z,100386.38
2022-09-25T18:13:20.052Z,100371.66
2022-09-25T18:15:51.079Z,100375.63
2022-09-25T18:18:20.938Z,100373.78
2022-09-25T18:21:09.334Z,100381.88
2022-09-25T18:23:39.101Z,100373.09
2022-09-25T18:26:10.121Z,100375.63
2022-09-25T18:28:38.292Z,100355.13
2022-09-25T18:31:07.092Z,100358.63
2022-09-25T18:33:39.003Z,100342.06
2022-09-25T18:36:09.079Z,100354.13
2022-09-25T18:38:39.146Z,100342.38
2022-09-25T18:41:07.908Z,100343.22
2022-09-25T18:43:36.183Z,100279.94
2022-09-25T18:46:04.487Z,100335.16
2022-09-25T18:48:32.686Z,100335.00
2022-09-25T18:51:05.755Z,100334.84
2022-09-25T18:53:33.919Z,100332.31
2022-09-25T18:56:02.514Z,100335.00
2022-09-25T18:58:32.857Z,100327.78
2022-09-25T19:01:01.700Z,100333.00
2022-09-25T19:03:30.297Z,100334.03
2022-09-25T19:06:01.571Z,100336.41
2022-09-25T19:08:31.566Z,100325.97
2022-09-25T19:11:01.749Z,100322.81
2022-09-25T19:13:31.441Z,100302.59
2022-09-25T19:16:01.328Z,100320.25
2022-09-25T19:18:31.654Z,100322.53
2022-09-25T19:21:02.019Z,100322.53
2022-09-25T19:23:35.528Z,100319.69
2022-09-25T19:26:06.822Z,100313.47
2022-09-25T19:28:36.967Z,100306.41
2022-09-25T19:31:07.750Z,100295.66
2022-09-25T19:33:39.190Z,100303.44
2022-09-25T19:36:09.646Z,100288.13
2022-09-25T19:38:41.662Z,100294.34
2022-09-25T19:41:13.827Z,100292.50
2022-09-25T19:43:42.604Z,100282.72
2022-09-25T19:46:14.499Z,100280.91
2022-09-25T19:48:43.764Z,100276.53
2022-09-25T19:51:12.169Z,100271.84
2022-09-25T19:53:42.976Z,100271.69
2022-09-25T19:56:12.170Z,100268.13
2022-09-25T19:58:40.839Z,100269.84
2022-09-25T20:01:13.096Z,100268.88
2022-09-25T20:03:42.761Z,100263.47
2022-09-25T20:06:11.756Z,100257.25
2022-09-25T20:08:41.570Z,100257.09
2022-09-25T20:11:18.613Z,100254.13
2022-09-25T20:13:48.131Z,100251.72
2022-09-25T20:16:18.429Z,100250.44
2022-09-25T20:18:49.397Z,100245.06
2022-09-25T20:21:21.374Z,100246.91
2022-09-25T20:23:52.602Z,100243.19
2022-09-25T20:26:21.507Z,100247.59
2022-09-25T20:28:53.761Z,100237.69
2022-09-25T20:31:22.597Z,100233.28
2022-09-25T20:33:50.542Z,100229.59
2022-09-25T20:36:19.247Z,100237.53
2022-09-25T20:38:51.686Z,100225.78
2022-09-25T20:41:20.533Z,100217.44
2022-09-25T20:43:51.146Z,100228.47
2022-09-25T20:46:20.450Z,100224.91
2022-09-25T20:48:51.134Z,100222.09
2022-09-25T20:51:21.162Z,100224.78
2022-09-25T20:53:52.516Z,100219.25
2022-09-25T20:56:21.851Z,100224.63
2022-09-25T20:58:53.260Z,100217.53
2022-09-25T21:01:24.422Z,100222.78
2022-09-25T21:03:53.336Z,100214.72
2022-09-25T21:06:23.742Z,100212.88
2022-09-25T21:08:54.874Z,100211.00
2022-09-25T21:11:24.233Z,100207.50
2022-09-25T21:13:53.642Z,100205.63
2022-09-25T21:16:23.106Z,100206.34
2022-09-25T21:18:53.772Z,100201.66
2022-09-25T21:21:21.734Z,100198.13
2022-09-25T21:23:51.604Z,100196.28
2022-09-25T21:26:21.896Z,100184.50
2022-09-25T21:28:51.591Z,100185.34
2022-09-25T21:31:21.832Z,100179.00
2022-09-25T21:33:52.077Z,100175.44
2022-09-25T21:36:20.584Z,100170.91
2022-09-25T21:38:49.180Z,100172.75
2022-09-25T21:41:18.877Z,100173.44
2022-09-25T21:43:48.410Z,100168.91
2022-09-25T21:46:18.736Z,100171.44
2022-09-25T21:48:49.963Z,100163.38
2022-09-25T21:51:19.687Z,100158.84
2022-09-25T21:53:48.019Z,100153.47
2022-09-25T21:56:17.354Z,100148.94
2022-09-25T21:58:45.868Z,100148.06
2022-09-25T22:01:17.375Z,100148.94
2022-09-25T22:03:48.138Z,100147.94
2022-09-25T22:06:18.412Z,100138.16
2022-09-25T22:08:49.368Z,100140.72
2022-09-25T22:11:17.894Z,100135.47
2022-09-25T22:13:47.354Z,100132.66
2022-09-25T22:16:19.392Z,100128.94
2022-09-25T22:18:49.869Z,100127.25
2022-09-25T22:21:20.319Z,100129.25
2022-09-25T22:23:48.853Z,100123.56
2022-09-25T22:26:18.190Z,100120.88
2022-09-25T22:28:46.533Z,100101.84
2022-09-25T22:31:17.691Z,100132.50
2022-09-25T22:33:46.532Z,100124.41
2022-09-25T22:36:14.783Z,100121.88
2022-09-25T22:38:42.769Z,100121.72
2022-09-25T22:41:13.180Z,100123.44
2022-09-25T22:43:42.401Z,100119.03
2022-09-25T22:46:12.000Z,100118.88
2022-09-25T22:48:41.344Z,100120.56
2022-09-25T22:51:12.896Z,100138.44
2022-09-25T22:53:42.688Z,100129.63
2022-09-25T22:56:13.081Z,100104.00
2022-09-25T22:58:41.962Z,100120.31
2022-09-25T23:01:13.340Z,100128.38
2022-09-25T23:03:42.800Z,100121.63
2022-09-25T23:06:10.767Z,100114.88
2022-09-25T23:08:38.642Z,100116.81
2022-09-25T23:11:08.569Z,100121.38
2022-09-25T23:13:37.334Z,100126.06
2022-09-25T23:16:07.382Z,100111.91
2022-09-25T23:18:35.787Z,100105.28
2022-09-25T23:21:05.526Z,100098.06
2022-09-25T23:23:33.627Z,100105.13
2022-09-25T23:26:03.504Z,100100.91
2022-09-25T23:28:33.522Z,100099.19
2022-09-25T23:31:07.334Z,100101.19
2022-09-25T23:33:35.585Z,100093.44
2022-09-25T23:36:06.666Z,100086.50
2022-09-25T23:38:34.907Z,100086.63
2022-09-25T23:41:03.411Z,100082.25
2022-09-25T23:43:31.329Z,100076.19
2022-09-25T23:45:59.260Z,100047.09
2022-09-25T23:48:27.132Z,100075.63
2022-09-25T23:50:55.027Z,100054.31
2022-09-25T23:53:24.297Z,100071.25
2022-09-25T23:55:52.157Z,100062.66
2022-09-25T23:58:20.095Z,100059.09
